Time;durP1;ratioP1;P1;durP2;ratioP2;P2;SDS_P1;SDS_P2;PMS_P1;PMS_P2;Temp;Humidity;BMP_temperature;BMP_pressure;BME280_temperature;BME280_humidity;BME280_pressure;Samples;Min_cycle;Max_cycle;Signal;HPM_P1;HPM_P2
2021/11/09 00:00:32;;;;;;;;;;;5.10;99.90;;;;;;5105777;28;19987;-76
2021/11/09 00:02:59;;;;;;;;;;;5.20;99.90;;;;;;5108461;28;19927;-76
2021/11/09 00:05:28;;;;;;;;;;;5.10;99.90;;;;;;5105840;28;20002;-76
2021/11/09 00:07:57;;;;;;;;;;;5.10;99.90;;;;;;5106372;28;19953;-77
2021/11/09 00:10:27;;;;;;;;;;;5.10;99.90;;;;;;5109760;28;19988;-76
2021/11/09 00:12:55;;;;;;;;;;;5.10;99.90;;;;;;5107995;28;20286;-76
2021/11/09 00:15:22;;;;;;;;;;;5.00;99.90;;;;;;5108766;28;20896;-76
2021/11/09 00:17:50;;;;;;;;;;;5.00;99.90;;;;;;5108177;28;19923;-76
2021/11/09 00:20:18;;;;;;;;;;;4.90;99.90;;;;;;5110217;28;19955;-76
2021/11/09 00:22:45;;;;;;;;;;;4.80;99.90;;;;;;5109525;28;20022;-76
2021/11/09 00:25:14;;;;;;;;;;;4.80;99.90;;;;;;5111426;28;20351;-76
2021/11/09 00:27:42;;;;;;;;;;;4.80;99.90;;;;;;5102453;28;19924;-76
2021/11/09 00:30:10;;;;;;;;;;;4.80;99.90;;;;;;5107455;28;20563;-76
2021/11/09 00:32:37;;;;;;;;;;;4.90;99.90;;;;;;5106267;28;22332;-76
2021/11/09 00:35:05;;;;;;;;;;;4.90;99.90;;;;;;5099517;28;20379;-76
2021/11/09 00:37:31;;;;;;;;;;;4.90;99.90;;;;;;5098042;28;20014;-76
2021/11/09 00:39:58;;;;;;;;;;;4.90;99.90;;;;;;5111534;28;20430;-76
2021/11/09 00:42:25;;;;;;;;;;;4.90;99.90;;;;;;5101750;28;20003;-76
2021/11/09 00:44:53;;;;;;;;;;;4.90;99.90;;;;;;5105526;28;20451;-76
2021/11/09 00:47:19;;;;;;;;;;;4.90;99.90;;;;;;5098784;28;20023;-77
2021/11/09 00:49:46;;;;;;;;;;;4.90;99.90;;;;;;5107885;28;20034;-75
2021/11/09 00:52:14;;;;;;;;;;;4.90;99.90;;;;;;5103960;27;20014;-76
2021/11/09 00:54:40;;;;;;;;;;;4.90;99.90;;;;;;5106058;28;19924;-76
2021/11/09 00:57:07;;;;;;;;;;;4.90;99.90;;;;;;5098381;28;19924;-76
2021/11/09 00:59:34;;;;;;;;;;;4.90;99.90;;;;;;5102856;28;19924;-76
2021/11/09 01:02:02;;;;;;;;;;;4.90;99.90;;;;;;5106248;28;19963;-76
2021/11/09 01:04:29;;;;;;;;;;;4.90;99.90;;;;;;5103213;28;19974;-76
2021/11/09 01:06:56;;;;;;;;;;;4.90;99.90;;;;;;5104328;28;19936;-76
2021/11/09 01:09:23;;;;;;;;;;;4.90;99.90;;;;;;5111143;28;20018;-77
2021/11/09 01:11:50;;;;;;;;;;;4.90;99.90;;;;;;5107657;28;20019;-76
2021/11/09 01:14:18;;;;;;;;;;;4.90;99.90;;;;;;5112151;28;19991;-77
2021/11/09 01:16:44;;;;;;;;;;;4.90;99.90;;;;;;5106043;28;20030;-76
2021/11/09 01:19:13;;;;;;;;;;;4.80;99.90;;;;;;5110307;28;20031;-76
2021/11/09 01:21:41;;;;;;;;;;;4.80;99.90;;;;;;5110553;28;19977;-77
2021/11/09 01:24:08;;;;;;;;;;;4.70;99.90;;;;;;5106965;28;19966;-76
2021/11/09 01:26:35;;;;;;;;;;;4.70;99.90;;;;;;5108006;28;20023;-76
2021/11/09 01:29:03;;;;;;;;;;;4.70;99.90;;;;;;5104743;28;20023;-76
2021/11/09 01:31:30;;;;;;;;;;;4.60;99.90;;;;;;5104070;28;20034;-76
2021/11/09 01:33:57;;;;;;;;;;;4.50;99.90;;;;;;5109138;28;20010;-77
2021/11/09 01:36:25;;;;;;;;;;;4.50;99.90;;;;;;5103156;28;20014;-76
2021/11/09 01:38:52;;;;;;;;;;;4.50;99.90;;;;;;5109678;28;20026;-76
2021/11/09 01:41:19;;;;;;;;;;;4.50;99.90;;;;;;5105267;28;20007;-75
2021/11/09 01:43:46;;;;;;;;;;;4.40;99.90;;;;;;5108265;28;19987;-75
2021/11/09 01:46:14;;;;;;;;;;;4.40;99.90;;;;;;5108673;28;19988;-76
2021/11/09 01:48:41;;;;;;;;;;;4.40;99.90;;;;;;5110215;28;20449;-76
2021/11/09 01:51:09;;;;;;;;;;;4.30;99.90;;;;;;5101225;28;19928;-75
2021/11/09 01:53:38;;;;;;;;;;;4.30;99.90;;;;;;5105115;28;20011;-75
2021/11/09 01:56:07;;;;;;;;;;;4.30;99.90;;;;;;5114830;28;19924;-75
2021/11/09 01:58:34;;;;;;;;;;;4.30;99.90;;;;;;5106807;28;20399;-76
2021/11/09 02:01:02;;;;;;;;;;;4.30;99.90;;;;;;5111091;28;20026;-75
2021/11/09 02:03:29;;;;;;;;;;;4.40;99.90;;;;;;5108089;28;19924;-75
2021/11/09 02:05:55;;;;;;;;;;;4.40;99.90;;;;;;5114940;28;20026;-75
2021/11/09 02:08:24;;;;;;;;;;;4.50;99.90;;;;;;5106608;28;19924;-75
2021/11/09 02:10:53;;;;;;;;;;;4.40;99.90;;;;;;5113555;28;19924;-75
2021/11/09 02:13:23;;;;;;;;;;;4.50;99.90;;;;;;5102630;28;19931;-75
2021/11/09 02:15:50;;;;;;;;;;;4.50;99.90;;;;;;5114860;28;19931;-75
2021/11/09 02:18:17;;;;;;;;;;;4.50;99.90;;;;;;5102681;28;19924;-75
2021/11/09 02:20:50;;;;;;;;;;;4.50;99.90;;;;;;5111146;28;20003;-75
2021/11/09 02:23:17;;;;;;;;;;;4.50;99.90;;;;;;5107067;28;20010;-75
2021/11/09 02:25:44;;;;;;;;;;;4.50;99.90;;;;;;5113581;28;20014;-76
2021/11/09 02:28:11;;;;;;;;;;;4.60;99.90;;;;;;5103612;28;20362;-76
2021/11/09 02:30:38;;;;;;;;;;;4.60;99.90;;;;;;5101870;28;19931;-75
2021/11/09 02:33:05;;;;;;;;;;;4.60;99.90;;;;;;5102033;28;19945;-75
2021/11/09 02:35:31;;;;;;;;;;;4.60;99.90;;;;;;5112068;28;20377;-76
2021/11/09 02:38:00;;;;;;;;;;;4.60;99.90;;;;;;5106059;28;20030;-76
2021/11/09 02:40:26;;;;;;;;;;;4.60;99.90;;;;;;5109474;28;20002;-75
2021/11/09 02:42:55;;;;;;;;;;;4.60;99.90;;;;;;5106673;28;20026;-75
2021/11/09 02:45:31;;;;;;;;;;;4.70;99.90;;;;;;5113171;28;19923;-75
2021/11/09 02:48:01;;;;;;;;;;;4.80;99.90;;;;;;5106561;28;19924;-75
2021/11/09 02:50:31;;;;;;;;;;;4.80;99.90;;;;;;5113008;28;20340;-75
2021/11/09 02:53:02;;;;;;;;;;;4.80;99.90;;;;;;5112830;28;19931;-77
2021/11/09 02:55:33;;;;;;;;;;;4.80;99.90;;;;;;5108130;28;19928;-76
2021/11/09 02:58:08;;;;;;;;;;;4.70;99.90;;;;;;5104827;28;19924;-76
2021/11/09 03:00:42;;;;;;;;;;;4.80;99.90;;;;;;5107743;28;19927;-76
2021/11/09 03:03:13;;;;;;;;;;;4.80;99.90;;;;;;5111792;28;19969;-75
2021/11/09 03:05:46;;;;;;;;;;;4.80;99.90;;;;;;5108339;28;20442;-76
2021/11/09 03:08:23;;;;;;;;;;;4.90;99.90;;;;;;5110314;28;19923;-76
2021/11/09 03:10:51;;;;;;;;;;;4.90;99.90;;;;;;5102994;28;20537;-76
2021/11/09 03:13:18;;;;;;;;;;;4.90;99.90;;;;;;5111468;28;19943;-75
2021/11/09 03:15:45;;;;;;;;;;;4.90;99.90;;;;;;5112710;28;19924;-77
2021/11/09 03:18:14;;;;;;;;;;;4.90;99.90;;;;;;5110277;28;20336;-75
2021/11/09 03:20:46;;;;;;;;;;;4.90;99.90;;;;;;5114408;28;20275;-76
2021/11/09 03:45:06;;;;;;;;;;;4.50;99.90;;;;;;5103562;28;19968;-76
2021/11/09 03:47:38;;;;;;;;;;;4.50;99.90;;;;;;5110285;28;20014;-76
2021/11/09 03:50:05;;;;;;;;;;;4.50;99.90;;;;;;5102091;28;20374;-76
2021/11/09 03:52:39;;;;;;;;;;;4.40;99.90;;;;;;5102555;28;19933;-76
2021/11/09 03:55:08;;;;;;;;;;;4.40;99.90;;;;;;5109371;28;19969;-76
2021/11/09 03:57:37;;;;;;;;;;;4.40;99.90;;;;;;5104295;28;19946;-76
2021/11/09 04:00:13;;;;;;;;;;;4.40;99.90;;;;;;5114845;28;19945;-77
2021/11/09 04:02:48;;;;;;;;;;;4.40;99.90;;;;;;5109601;27;19946;-75
2021/11/09 04:05:17;;;;;;;;;;;4.30;99.90;;;;;;5112504;28;19977;-76
2021/11/09 04:07:50;;;;;;;;;;;4.40;99.90;;;;;;5102222;28;19931;-76
2021/11/09 04:10:26;;;;;;;;;;;4.40;99.90;;;;;;5105102;28;19934;-76
2021/11/09 04:13:00;;;;;;;;;;;4.40;99.90;;;;;;5101974;28;19931;-76
2021/11/09 04:15:43;;;;;;;;;;;4.50;99.90;;;;;;5108376;28;19970;-76
2021/11/09 04:18:19;;;;;;;;;;;4.50;99.90;;;;;;5102499;28;20015;-76
2021/11/09 04:20:55;;;;;;;;;;;4.50;99.90;;;;;;5108248;28;19923;-76
2021/11/09 04:23:47;;;;;;;;;;;4.50;99.90;;;;;;5107288;28;20097;-76
2021/11/09 05:02:18;;;;;;;;;;;4.70;99.90;;;;;;5111107;28;19933;-75
2021/11/09 05:10:16;;;;;;;;;;;4.60;99.90;;;;;;5099430;28;19931;-77
2021/11/09 05:12:44;;;;;;;;;;;4.60;99.90;;;;;;5110423;28;19924;-75
2021/11/09 05:15:12;;;;;;;;;;;4.60;99.90;;;;;;5106924;28;19924;-76
2021/11/09 05:17:39;;;;;;;;;;;4.60;99.90;;;;;;5108861;28;20289;-77
2021/11/09 05:20:06;;;;;;;;;;;4.70;99.90;;;;;;5105558;28;19924;-76
2021/11/09 05:22:32;;;;;;;;;;;4.70;99.90;;;;;;5110989;28;19923;-76
2021/11/09 05:24:59;;;;;;;;;;;4.70;99.90;;;;;;5102005;28;19934;-76
2021/11/09 05:27:27;;;;;;;;;;;4.70;99.90;;;;;;5108530;28;20018;-76
2021/11/09 05:29:54;;;;;;;;;;;4.70;99.90;;;;;;5113918;28;20309;-76
2021/11/09 05:32:23;;;;;;;;;;;4.70;99.90;;;;;;5112557;28;19931;-76
2021/11/09 05:34:49;;;;;;;;;;;4.80;99.90;;;;;;5118081;28;19992;-76
2021/11/09 05:37:20;;;;;;;;;;;4.80;99.90;;;;;;5112432;28;19930;-76
2021/11/09 05:39:49;;;;;;;;;;;4.80;99.90;;;;;;5100838;28;19931;-76
2021/11/09 05:42:16;;;;;;;;;;;4.80;99.90;;;;;;5104940;28;20356;-76
2021/11/09 05:44:43;;;;;;;;;;;4.70;99.90;;;;;;5112465;28;19924;-76
2021/11/09 05:47:10;;;;;;;;;;;4.70;99.90;;;;;;5112470;28;19942;-76
2021/11/09 05:49:38;;;;;;;;;;;4.80;99.90;;;;;;5113633;28;19924;-76
2021/11/09 05:52:05;;;;;;;;;;;4.70;99.90;;;;;;5103032;28;19924;-76
2021/11/09 05:54:32;;;;;;;;;;;4.60;99.90;;;;;;5102492;28;20290;-76
2021/11/09 05:56:59;;;;;;;;;;;4.70;99.90;;;;;;5101731;28;19927;-76
2021/11/09 05:59:25;;;;;;;;;;;4.70;99.90;;;;;;5111511;28;19924;-75
2021/11/09 06:01:52;;;;;;;;;;;4.60;99.90;;;;;;5108451;28;19924;-77
2021/11/09 06:04:19;;;;;;;;;;;4.60;99.90;;;;;;5113406;28;19942;-77
2021/11/09 06:06:47;;;;;;;;;;;4.70;99.90;;;;;;5102326;28;19932;-76
2021/11/09 06:09:13;;;;;;;;;;;4.70;99.90;;;;;;5116035;28;19923;-76
2021/11/09 06:11:40;;;;;;;;;;;4.70;99.90;;;;;;5111695;28;19933;-74
2021/11/09 06:14:07;;;;;;;;;;;4.70;99.90;;;;;;5105821;28;19953;-74
2021/11/09 06:16:34;;;;;;;;;;;4.70;99.90;;;;;;5109335;28;19949;-74
2021/11/09 06:19:01;;;;;;;;;;;4.70;99.90;;;;;;5113494;28;19959;-74
2021/11/09 06:21:27;;;;;;;;;;;4.70;99.90;;;;;;5112088;28;19928;-75
2021/11/09 06:23:55;;;;;;;;;;;4.70;99.90;;;;;;5113812;28;19930;-75
2021/11/09 06:26:22;;;;;;;;;;;4.70;99.90;;;;;;5111081;28;19924;-75
2021/11/09 06:28:51;;;;;;;;;;;4.60;99.90;;;;;;5110377;27;19924;-75
2021/11/09 06:31:18;;;;;;;;;;;4.60;99.90;;;;;;5104308;27;19930;-76
2021/11/09 06:33:44;;;;;;;;;;;4.60;99.90;;;;;;5105666;28;20394;-76
2021/11/09 06:36:11;;;;;;;;;;;4.60;99.90;;;;;;5108435;28;19938;-75
2021/11/09 06:38:38;;;;;;;;;;;4.60;99.90;;;;;;5108340;28;20015;-74
2021/11/09 06:41:06;;;;;;;;;;;4.50;99.90;;;;;;5110975;28;19924;-75
2021/11/09 06:43:33;;;;;;;;;;;4.50;99.90;;;;;;5110059;28;19931;-75
2021/11/09 06:45:59;;;;;;;;;;;4.50;99.90;;;;;;5102365;28;19934;-76
2021/11/09 06:48:26;;;;;;;;;;;4.50;99.90;;;;;;5110841;28;20301;-75
2021/11/09 06:50:54;;;;;;;;;;;4.60;99.90;;;;;;5103731;28;19924;-75
2021/11/09 06:53:20;;;;;;;;;;;4.60;99.90;;;;;;5107844;28;20388;-75
2021/11/09 06:55:47;;;;;;;;;;;4.80;99.90;;;;;;5109196;28;19923;-75
2021/11/09 06:58:16;;;;;;;;;;;4.80;99.90;;;;;;5108592;28;19945;-75
2021/11/09 07:00:44;;;;;;;;;;;4.80;99.90;;;;;;5108297;28;20022;-76
2021/11/09 07:03:11;;;;;;;;;;;4.80;99.90;;;;;;5099798;28;19980;-76
2021/11/09 07:05:38;;;;;;;;;;;4.80;99.90;;;;;;5100987;28;19996;-76
2021/11/09 07:08:05;;;;;;;;;;;4.80;99.90;;;;;;5104641;28;19931;-76
2021/11/09 07:10:32;;;;;;;;;;;4.80;99.90;;;;;;5098987;28;20417;-74
2021/11/09 07:12:58;;;;;;;;;;;4.90;99.90;;;;;;5104233;28;20076;-75
2021/11/09 07:15:26;;;;;;;;;;;4.90;99.90;;;;;;5108337;28;19960;-76
2021/11/09 07:17:53;;;;;;;;;;;4.90;99.90;;;;;;5105744;28;19923;-74
2021/11/09 07:20:21;;;;;;;;;;;5.00;99.90;;;;;;5107990;28;20338;-73
2021/11/09 07:22:48;;;;;;;;;;;5.00;99.90;;;;;;5107044;28;20011;-75
2021/11/09 07:25:15;;;;;;;;;;;5.10;99.90;;;;;;5106910;28;19950;-73
2021/11/09 07:27:42;;;;;;;;;;;5.10;99.90;;;;;;5099351;28;19924;-75
2021/11/09 07:30:09;;;;;;;;;;;5.10;99.90;;;;;;5105963;27;19923;-74
2021/11/09 07:32:38;;;;;;;;;;;5.10;99.90;;;;;;5105288;28;19923;-74
2021/11/09 07:35:05;;;;;;;;;;;5.20;99.90;;;;;;5104617;28;19928;-74
2021/11/09 07:37:32;;;;;;;;;;;5.20;99.90;;;;;;5105139;28;20698;-74
2021/11/09 07:39:58;;;;;;;;;;;5.20;99.90;;;;;;5108030;28;20086;-74
2021/11/09 07:42:25;;;;;;;;;;;5.30;99.90;;;;;;5103067;28;19930;-75
2021/11/09 07:44:53;;;;;;;;;;;5.30;99.90;;;;;;5105245;28;19932;-74
2021/11/09 07:47:19;;;;;;;;;;;5.40;99.90;;;;;;5104073;28;20018;-77
2021/11/09 07:49:48;;;;;;;;;;;5.40;99.90;;;;;;5109853;28;19924;-75
2021/11/09 07:52:15;;;;;;;;;;;5.50;99.90;;;;;;5106757;28;19924;-74
2021/11/09 07:54:45;;;;;;;;;;;5.60;99.90;;;;;;5106345;28;19927;-74
2021/11/09 07:57:12;;;;;;;;;;;5.70;99.90;;;;;;5103514;28;19936;-75
2021/11/09 07:59:44;;;;;;;;;;;5.70;99.90;;;;;;5106324;27;19932;-77
2021/11/09 08:02:15;;;;;;;;;;;5.70;99.90;;;;;;5104195;28;19924;-77
2021/11/09 08:04:47;;;;;;;;;;;6.40;99.90;;;;;;5107845;28;19924;-77
2021/11/09 08:07:17;;;;;;;;;;;8.10;99.90;;;;;;5105365;28;20436;-76
2021/11/09 08:09:44;;;;;;;;;;;9.50;99.90;;;;;;5100924;28;19928;-76
2021/11/09 08:12:11;;;;;;;;;;;10.60;99.90;;;;;;5100156;28;20378;-76
2021/11/09 08:14:38;;;;;;;;;;;11.60;99.90;;;;;;5104468;28;20068;-75
2021/11/09 08:17:05;;;;;;;;;;;12.30;99.90;;;;;;5101031;28;19924;-78
2021/11/09 08:19:32;;;;;;;;;;;12.90;94.10;;;;;;5100532;28;20353;-76
2021/11/09 08:21:59;;;;;;;;;;;13.20;90.90;;;;;;5104576;28;19958;-77
2021/11/09 08:24:27;;;;;;;;;;;12.80;86.40;;;;;;5103767;28;19924;-75
2021/11/09 08:26:55;;;;;;;;;;;11.60;88.60;;;;;;5102862;28;19931;-75
2021/11/09 08:29:25;;;;;;;;;;;10.80;91.10;;;;;;5101166;28;19928;-75
2021/11/09 08:31:52;;;;;;;;;;;10.60;93.30;;;;;;5102892;28;20031;-75
2021/11/09 08:34:19;;;;;;;;;;;10.20;94.40;;;;;;5104996;28;20606;-75
2021/11/09 08:36:46;;;;;;;;;;;10.00;96.40;;;;;;5102585;28;20298;-75
2021/11/09 08:39:17;;;;;;;;;;;9.90;98.50;;;;;;5100222;28;20011;-75
2021/11/09 08:41:47;;;;;;;;;;;10.10;99.00;;;;;;5102384;28;19928;-74
2021/11/09 08:44:18;;;;;;;;;;;10.20;98.80;;;;;;5104802;28;20335;-74
2021/11/09 08:46:47;;;;;;;;;;;10.70;98.90;;;;;;5099944;28;20298;-75
2021/11/09 08:49:15;;;;;;;;;;;11.20;97.70;;;;;;5102100;28;19928;-75
2021/11/09 08:51:43;;;;;;;;;;;11.40;97.10;;;;;;5101446;28;20027;-76
2021/11/09 08:54:15;;;;;;;;;;;12.20;96.10;;;;;;5103966;28;19928;-77
2021/11/09 09:04:56;;;;;;;;;;;14.10;83.30;;;;;;5101935;28;20027;-75
2021/11/09 09:07:23;;;;;;;;;;;14.30;81.10;;;;;;5103187;28;20332;-76
2021/11/09 09:09:50;;;;;;;;;;;14.20;78.30;;;;;;5101313;28;19939;-77
2021/11/09 09:12:17;;;;;;;;;;;14.40;78.20;;;;;;5100213;28;20401;-76
2021/11/09 09:14:45;;;;;;;;;;;13.10;77.70;;;;;;5103217;28;19928;-76
2021/11/09 09:17:12;;;;;;;;;;;11.70;82.70;;;;;;5096348;28;19924;-75
2021/11/09 09:19:41;;;;;;;;;;;10.60;88.00;;;;;;5103863;28;21075;-77
2021/11/09 09:22:10;;;;;;;;;;;10.10;91.80;;;;;;5101209;28;19930;-76
2021/11/09 09:24:59;;;;;;;;;;;9.70;95.60;;;;;;5101397;28;19977;-77
2021/11/09 09:27:32;;;;;;;;;;;9.50;98.40;;;;;;5107970;28;20061;-75
2021/11/09 09:30:16;;;;;;;;;;;9.30;99.90;;;;;;5108476;28;20403;-76
2021/11/09 09:32:59;;;;;;;;;;;9.20;99.90;;;;;;5102693;28;19924;-73
2021/11/09 09:57:33;;;;;;;;;;;9.30;99.90;;;;;;5069264;28;19923;-76
2021/11/09 10:00:02;;;;;;;;;;;9.50;99.90;;;;;;5103734;28;19934;-77
2021/11/09 10:02:31;;;;;;;;;;;9.50;99.90;;;;;;5109136;28;19936;-75
2021/11/09 10:05:02;;;;;;;;;;;9.60;99.90;;;;;;5105844;28;19931;-76
2021/11/09 10:07:30;;;;;;;;;;;9.70;99.90;;;;;;5103432;28;20272;-77
2021/11/09 10:09:58;;;;;;;;;;;10.00;99.90;;;;;;5103890;28;19967;-77
2021/11/09 10:12:30;;;;;;;;;;;10.20;99.90;;;;;;5101916;28;20354;-76
2021/11/09 10:14:58;;;;;;;;;;;10.40;99.90;;;;;;5106528;28;20022;-77
2021/11/09 10:17:27;;;;;;;;;;;10.40;99.90;;;;;;5109218;28;20427;-76
2021/11/09 10:19:55;;;;;;;;;;;10.40;99.90;;;;;;5110977;28;19924;-75
2021/11/09 10:22:24;;;;;;;;;;;10.50;99.90;;;;;;5104883;27;19931;-78
2021/11/09 10:24:52;;;;;;;;;;;10.50;99.90;;;;;;5105898;28;20298;-75
2021/11/09 10:27:19;;;;;;;;;;;10.50;99.90;;;;;;5101262;28;19931;-76
2021/11/09 10:29:46;;;;;;;;;;;10.40;99.90;;;;;;5109413;28;19930;-75
2021/11/09 10:32:15;;;;;;;;;;;10.50;99.90;;;;;;5108769;28;19950;-75
2021/11/09 10:34:41;;;;;;;;;;;10.50;99.90;;;;;;5107351;28;19931;-78
2021/11/09 10:37:16;;;;;;;;;;;10.70;99.90;;;;;;5108009;28;19930;-80
2021/11/09 10:39:44;;;;;;;;;;;10.80;99.90;;;;;;5106939;28;20408;-79
2021/11/09 10:42:17;;;;;;;;;;;10.70;99.90;;;;;;5107095;28;19938;-77
2021/11/09 10:44:49;;;;;;;;;;;10.60;99.90;;;;;;5109233;28;19967;-74
2021/11/09 10:47:16;;;;;;;;;;;10.60;99.90;;;;;;5104001;28;19924;-74
2021/11/09 10:49:46;;;;;;;;;;;10.60;99.90;;;;;;5105861;28;19924;-75
2021/11/09 10:52:17;;;;;;;;;;;10.70;99.90;;;;;;5106389;28;20298;-76
2021/11/09 10:54:49;;;;;;;;;;;10.70;99.90;;;;;;5108451;28;19969;-79
2021/11/09 10:57:22;;;;;;;;;;;10.70;99.90;;;;;;5104893;28;19931;-80
2021/11/09 11:00:00;;;;;;;;;;;10.90;99.90;;;;;;5107009;28;19923;-78
2021/11/09 11:05:18;;;;;;;;;;;11.10;99.90;;;;;;5105109;28;20310;-76
2021/11/09 11:07:52;;;;;;;;;;;11.10;99.90;;;;;;5108564;28;19946;-77
2021/11/09 11:10:26;;;;;;;;;;;11.30;99.90;;;;;;5107441;28;19924;-78
2021/11/09 11:12:53;;;;;;;;;;;11.40;99.90;;;;;;5103529;28;20321;-71
2021/11/09 11:15:20;;;;;;;;;;;11.40;99.90;;;;;;5103366;28;19976;-74
2021/11/09 11:17:47;;;;;;;;;;;11.30;99.80;;;;;;5103552;28;20026;-75
2021/11/09 11:20:14;;;;;;;;;;;11.20;99.80;;;;;;5103305;28;20389;-79
2021/11/09 11:22:41;;;;;;;;;;;11.20;99.90;;;;;;5100640;28;19924;-75
2021/11/09 11:25:09;;;;;;;;;;;11.20;99.90;;;;;;5105158;28;19924;-74
2021/11/09 11:27:36;;;;;;;;;;;11.10;99.80;;;;;;5103169;28;19951;-75
2021/11/09 11:30:03;;;;;;;;;;;11.10;99.40;;;;;;5105718;28;20692;-75
2021/11/09 11:32:30;;;;;;;;;;;11.10;99.50;;;;;;5102664;28;19931;-80
2021/11/09 11:34:58;;;;;;;;;;;11.30;99.40;;;;;;5105523;28;20386;-75
2021/11/09 11:37:24;;;;;;;;;;;11.30;99.30;;;;;;5106196;28;19966;-77
2021/11/09 11:39:53;;;;;;;;;;;11.40;99.30;;;;;;5103572;28;19924;-76
2021/11/09 11:42:22;;;;;;;;;;;11.40;98.90;;;;;;5106586;28;19931;-75
2021/11/09 11:44:55;;;;;;;;;;;11.40;98.90;;;;;;5101932;28;19931;-76
2021/11/09 11:47:23;;;;;;;;;;;11.50;98.90;;;;;;5102132;28;19981;-75
2021/11/09 11:49:53;;;;;;;;;;;11.50;98.50;;;;;;5101510;28;20030;-73
2021/11/09 11:52:26;;;;;;;;;;;11.50;98.40;;;;;;5103404;28;19924;-74
2021/11/09 11:54:58;;;;;;;;;;;11.60;98.40;;;;;;5104612;28;19955;-74
2021/11/09 11:57:44;;;;;;;;;;;11.70;98.30;;;;;;5103037;28;19961;-74
2021/11/09 12:00:35;;;;;;;;;;;11.90;98.40;;;;;;5102790;28;19924;-78
2021/11/09 12:03:04;;;;;;;;;;;12.10;98.00;;;;;;5105611;28;19932;-75
2021/11/09 12:05:35;;;;;;;;;;;12.10;97.20;;;;;;5103235;28;20242;-76
2021/11/09 12:08:02;;;;;;;;;;;12.30;97.00;;;;;;5103094;28;19928;-75
2021/11/09 12:10:37;;;;;;;;;;;12.30;96.40;;;;;;5103905;28;19947;-75
2021/11/09 12:13:06;;;;;;;;;;;12.30;96.40;;;;;;5102825;28;19923;-76
2021/11/09 12:15:45;;;;;;;;;;;12.40;95.80;;;;;;5104695;28;20006;-74
2021/11/09 12:18:30;;;;;;;;;;;12.40;95.80;;;;;;5106377;28;20241;-74
2021/11/09 12:20:59;;;;;;;;;;;12.20;95.30;;;;;;5105598;28;20030;-77
2021/11/09 12:23:25;;;;;;;;;;;12.30;95.70;;;;;;5101840;28;19931;-76
2021/11/09 12:25:53;;;;;;;;;;;12.40;95.40;;;;;;5101693;28;19928;-77
2021/11/09 12:28:30;;;;;;;;;;;12.40;95.30;;;;;;5101535;28;19924;-74
2021/11/09 12:30:58;;;;;;;;;;;12.40;95.00;;;;;;5102266;28;19924;-76
2021/11/09 12:33:26;;;;;;;;;;;12.20;95.10;;;;;;5097581;28;19932;-75
2021/11/09 12:36:10;;;;;;;;;;;12.40;95.10;;;;;;5103479;28;19924;-77
2021/11/09 12:38:38;;;;;;;;;;;12.30;95.20;;;;;;5105274;28;19928;-77
2021/11/09 12:41:10;;;;;;;;;;;12.50;95.30;;;;;;5106224;28;20414;-76
2021/11/09 12:43:43;;;;;;;;;;;12.50;94.50;;;;;;5109955;28;19982;-78
2021/11/09 12:46:13;;;;;;;;;;;12.30;94.70;;;;;;5105696;28;20301;-76
2021/11/09 12:48:49;;;;;;;;;;;12.40;94.80;;;;;;5103610;28;19975;-76
2021/11/09 12:51:16;;;;;;;;;;;12.30;94.70;;;;;;5099921;28;19932;-77
2021/11/09 12:56:12;;;;;;;;;;;12.30;94.70;;;;;;5069330;22;19924;-77
2021/11/09 12:58:46;;;;;;;;;;;12.30;94.60;;;;;;5049768;28;20016;-76
2021/11/09 13:01:25;;;;;;;;;;;12.40;94.60;;;;;;5058678;28;19928;-76
2021/11/09 13:06:43;;;;;;;;;;;12.40;94.00;;;;;;5058041;28;19925;-79
2021/11/09 13:09:18;;;;;;;;;;;12.40;94.30;;;;;;5060043;28;20001;-84
2021/11/09 13:11:48;;;;;;;;;;;12.50;94.00;;;;;;5061385;28;19925;-84
2021/11/09 13:14:15;;;;;;;;;;;12.40;94.30;;;;;;5063069;28;19931;-81
2021/11/09 13:16:45;;;;;;;;;;;12.50;94.20;;;;;;5061988;28;19924;-78
2021/11/09 13:19:11;;;;;;;;;;;12.50;93.90;;;;;;5056942;28;19931;-76
2021/11/09 13:21:38;;;;;;;;;;;12.60;93.80;;;;;;5056204;28;20410;-77
2021/11/09 13:24:05;;;;;;;;;;;12.60;94.10;;;;;;5060906;28;19925;-77
2021/11/09 13:26:32;;;;;;;;;;;12.60;93.90;;;;;;5062730;28;20008;-78
2021/11/09 13:29:06;;;;;;;;;;;12.60;93.60;;;;;;5062791;28;19971;-78
2021/11/09 13:31:32;;;;;;;;;;;12.60;93.70;;;;;;5062215;28;19928;-79
2021/11/09 13:34:01;;;;;;;;;;;12.70;93.50;;;;;;5057552;28;20405;-76
2021/11/09 13:36:28;;;;;;;;;;;12.60;93.10;;;;;;5061759;28;20314;-77
2021/11/09 13:38:57;;;;;;;;;;;12.60;93.00;;;;;;5065482;28;19935;-75
2021/11/09 13:41:29;;;;;;;;;;;12.50;93.40;;;;;;5064103;28;19931;-75
2021/11/09 13:43:57;;;;;;;;;;;12.60;93.10;;;;;;5062765;28;19924;-77
2021/11/09 13:46:26;;;;;;;;;;;12.60;93.00;;;;;;5065595;28;19931;-76
2021/11/09 13:48:54;;;;;;;;;;;12.60;93.20;;;;;;5062466;28;20598;-76
2021/11/09 13:51:25;;;;;;;;;;;12.60;93.00;;;;;;5067408;28;19986;-83
2021/11/09 13:53:55;;;;;;;;;;;12.60;93.00;;;;;;5063696;28;19976;-82
2021/11/09 13:56:23;;;;;;;;;;;12.60;93.10;;;;;;5065598;28;19924;-73
2021/11/09 13:58:55;;;;;;;;;;;12.60;92.90;;;;;;5065498;28;19933;-73
2021/11/09 14:01:31;;;;;;;;;;;12.60;93.00;;;;;;5057372;28;19924;-73
2021/11/09 14:04:04;;;;;;;;;;;12.60;93.10;;;;;;5066533;28;19924;-72
2021/11/09 14:06:55;;;;;;;;;;;12.70;93.30;;;;;;5069414;28;19925;-74
2021/11/09 14:17:54;;;;;;;;;;;12.50;93.40;;;;;;5015017;28;19925;-83
2021/11/09 14:20:23;;;;;;;;;;;12.40;93.10;;;;;;5078010;28;19924;-83
2021/11/09 14:23:00;;;;;;;;;;;12.30;93.70;;;;;;5070595;28;19929;-77
2021/11/09 14:25:27;;;;;;;;;;;12.40;93.70;;;;;;5065230;28;20414;-77
2021/11/09 14:27:54;;;;;;;;;;;12.30;93.90;;;;;;5067302;28;20453;-75
2021/11/09 14:30:22;;;;;;;;;;;12.30;93.90;;;;;;5060391;28;19939;-77
2021/11/09 14:32:49;;;;;;;;;;;12.30;93.30;;;;;;5066399;28;19932;-77
2021/11/09 14:35:21;;;;;;;;;;;12.20;93.70;;;;;;5063908;28;20005;-75
2021/11/09 14:37:53;;;;;;;;;;;12.20;93.80;;;;;;5060856;28;19959;-75
2021/11/09 14:40:28;;;;;;;;;;;12.20;94.10;;;;;;5066130;28;19933;-75
2021/11/09 14:43:03;;;;;;;;;;;12.30;94.30;;;;;;5064037;28;20413;-76
2021/11/09 14:45:34;;;;;;;;;;;12.20;94.00;;;;;;5065578;28;19952;-75
2021/11/09 14:48:06;;;;;;;;;;;12.20;94.30;;;;;;5066161;28;19986;-76
2021/11/09 14:50:37;;;;;;;;;;;12.20;94.00;;;;;;5071324;28;20299;-75
2021/11/09 14:53:10;;;;;;;;;;;12.10;94.10;;;;;;5065634;28;19928;-76
2021/11/09 14:55:43;;;;;;;;;;;12.10;94.30;;;;;;5064377;28;20326;-78
2021/11/09 14:58:26;;;;;;;;;;;12.00;94.20;;;;;;5064641;28;19924;-75
2021/11/09 15:00:54;;;;;;;;;;;12.00;94.40;;;;;;5064163;28;19933;-76
2021/11/09 15:03:21;;;;;;;;;;;12.00;94.70;;;;;;5066869;28;19931;-76
2021/11/09 15:05:48;;;;;;;;;;;12.00;94.70;;;;;;5065447;28;20291;-79
2021/11/09 15:08:26;;;;;;;;;;;12.00;94.60;;;;;;5063438;28;19931;-76
2021/11/09 15:11:08;;;;;;;;;;;11.90;94.90;;;;;;5061932;28;19924;-75
2021/11/09 15:24:59;;;;;;;;;;;11.90;95.20;;;;;;5057955;28;19928;-76
2021/11/09 15:25:10;;;;;;;;;;;11.90;95.60;;;;;;5067553;28;19977;-74
2021/11/09 15:28:01;;;;;;;;;;;11.80;95.80;;;;;;5064570;28;19933;-76
2021/11/09 15:30:36;;;;;;;;;;;11.80;96.10;;;;;;5064262;28;19924;-75
2021/11/09 15:33:04;;;;;;;;;;;11.80;96.20;;;;;;5063569;28;19925;-75
2021/11/09 15:35:40;;;;;;;;;;;11.70;96.20;;;;;;5061448;28;19948;-75
2021/11/09 15:38:07;;;;;;;;;;;11.60;96.60;;;;;;5059680;28;20000;-75
2021/11/09 15:40:34;;;;;;;;;;;11.60;96.80;;;;;;5060639;28;19938;-73
2021/11/09 15:43:03;;;;;;;;;;;11.50;96.80;;;;;;5060260;28;20288;-76
2021/11/09 15:45:30;;;;;;;;;;;11.50;96.90;;;;;;5064728;28;20009;-79
2021/11/09 15:47:56;;;;;;;;;;;11.50;97.10;;;;;;5064332;28;19986;-74
2021/11/09 15:50:23;;;;;;;;;;;11.30;97.30;;;;;;5064709;28;19924;-75
2021/11/09 15:52:50;;;;;;;;;;;11.30;97.40;;;;;;5062335;28;20098;-75
2021/11/09 15:55:17;;;;;;;;;;;11.20;97.60;;;;;;5066418;28;19976;-75
2021/11/09 15:57:45;;;;;;;;;;;11.10;97.90;;;;;;5061723;28;20024;-78
2021/11/09 16:00:16;;;;;;;;;;;11.00;98.10;;;;;;5070056;28;19924;-78
2021/11/09 16:02:45;;;;;;;;;;;10.90;98.30;;;;;;5065220;28;20256;-79
2021/11/09 16:05:15;;;;;;;;;;;10.80;98.60;;;;;;5063278;28;19940;-75
2021/11/09 16:07:44;;;;;;;;;;;10.70;98.80;;;;;;5061658;28;19931;-75
2021/11/09 16:10:14;;;;;;;;;;;10.60;99.30;;;;;;5066203;28;19924;-77
2021/11/09 16:12:41;;;;;;;;;;;10.50;99.80;;;;;;5059442;28;19933;-76
2021/11/09 16:15:09;;;;;;;;;;;10.40;99.90;;;;;;5064972;28;19964;-76
2021/11/09 16:17:39;;;;;;;;;;;10.40;99.90;;;;;;5063615;28;19939;-74
2021/11/09 16:20:07;;;;;;;;;;;10.40;99.90;;;;;;5066962;28;19924;-74
2021/11/09 16:22:34;;;;;;;;;;;10.30;99.90;;;;;;5059794;28;20786;-78
2021/11/09 16:25:01;;;;;;;;;;;10.30;99.90;;;;;;5064323;28;19924;-76
2021/11/09 16:27:28;;;;;;;;;;;10.30;99.90;;;;;;5065220;28;19982;-74
2021/11/09 16:30:04;;;;;;;;;;;10.30;99.90;;;;;;5061943;28;19925;-77
2021/11/09 16:32:32;;;;;;;;;;;10.30;99.90;;;;;;5061230;28;20413;-76
2021/11/09 16:35:06;;;;;;;;;;;10.30;99.90;;;;;;5065391;28;19932;-75